sensor_id;sensor_type;location;lat;lon;timestamp;P1;durP1;ratioP1;P2;durP2;ratioP2
62696;SDS011;48761;42.680;23.312;2024-03-08T00:00:58;4.60;;;2.30;;
62696;SDS011;48761;42.680;23.312;2024-03-08T00:03:24;4.15;;;2.35;;
62696;SDS011;48761;42.680;23.312;2024-03-08T00:05:50;4.93;;;2.40;;
62696;SDS011;48761;42.680;23.312;2024-03-08T00:08:16;3.08;;;1.80;;
62696;SDS011;48761;42.680;23.312;2024-03-08T00:10:42;3.60;;;2.33;;
62696;SDS011;48761;42.680;23.312;2024-03-08T00:13:08;7.82;;;2.53;;
62696;SDS011;48761;42.680;23.312;2024-03-08T00:15:34;4.50;;;2.47;;
62696;SDS011;48761;42.680;23.312;2024-03-08T00:18:00;4.40;;;2.47;;
62696;SDS011;48761;42.680;23.312;2024-03-08T00:20:26;4.82;;;3.22;;
62696;SDS011;48761;42.680;23.312;2024-03-08T00:22:52;4.78;;;2.90;;
62696;SDS011;48761;42.680;23.312;2024-03-08T00:25:18;3.30;;;2.45;;
62696;SDS011;48761;42.680;23.312;2024-03-08T00:27:44;4.10;;;2.95;;
62696;SDS011;48761;42.680;23.312;2024-03-08T00:30:10;5.22;;;3.03;;
62696;SDS011;48761;42.680;23.312;2024-03-08T00:32:36;4.68;;;2.88;;
62696;SDS011;48761;42.680;23.312;2024-03-08T00:35:02;3.83;;;2.45;;
62696;SDS011;48761;42.680;23.312;2024-03-08T00:37:28;2.83;;;2.00;;
62696;SDS011;48761;42.680;23.312;2024-03-08T00:39:54;3.67;;;2.10;;
62696;SDS011;48761;42.680;23.312;2024-03-08T00:42:20;1.88;;;1.48;;
62696;SDS011;48761;42.680;23.312;2024-03-08T00:44:46;2.78;;;1.98;;
62696;SDS011;48761;42.680;23.312;2024-03-08T00:47:12;3.30;;;1.70;;
62696;SDS011;48761;42.680;23.312;2024-03-08T00:49:38;2.28;;;1.70;;
62696;SDS011;48761;42.680;23.312;2024-03-08T00:52:07;4.03;;;2.20;;
62696;SDS011;48761;42.680;23.312;2024-03-08T00:54:34;2.25;;;1.90;;
62696;SDS011;48761;42.680;23.312;2024-03-08T00:57:00;3.13;;;2.00;;
62696;SDS011;48761;42.680;23.312;2024-03-08T00:59:26;3.60;;;2.13;;
62696;SDS011;48761;42.680;23.312;2024-03-08T01:01:52;3.40;;;2.42;;
62696;SDS011;48761;42.680;23.312;2024-03-08T01:04:18;3.65;;;2.63;;
62696;SDS011;48761;42.680;23.312;2024-03-08T01:06:44;4.15;;;2.95;;
62696;SDS011;48761;42.680;23.312;2024-03-08T01:09:10;3.47;;;2.80;;
62696;SDS011;48761;42.680;23.312;2024-03-08T01:11:36;3.35;;;2.17;;
62696;SDS011;48761;42.680;23.312;2024-03-08T01:14:02;2.92;;;1.85;;
62696;SDS011;48761;42.680;23.312;2024-03-08T01:16:28;3.05;;;2.20;;
62696;SDS011;48761;42.680;23.312;2024-03-08T01:18:54;2.92;;;2.33;;
62696;SDS011;48761;42.680;23.312;2024-03-08T01:21:20;3.45;;;2.22;;
62696;SDS011;48761;42.680;23.312;2024-03-08T01:23:46;3.00;;;2.35;;
62696;SDS011;48761;42.680;23.312;2024-03-08T01:26:12;3.92;;;2.40;;
62696;SDS011;48761;42.680;23.312;2024-03-08T01:28:38;4.97;;;2.78;;
62696;SDS011;48761;42.680;23.312;2024-03-08T01:31:04;3.72;;;2.60;;
62696;SDS011;48761;42.680;23.312;2024-03-08T01:33:30;3.60;;;2.30;;
62696;SDS011;48761;42.680;23.312;2024-03-08T01:35:56;2.60;;;2.17;;
62696;SDS011;48761;42.680;23.312;2024-03-08T01:38:21;2.60;;;1.92;;
62696;SDS011;48761;42.680;23.312;2024-03-08T01:40:48;2.72;;;1.92;;
62696;SDS011;48761;42.680;23.312;2024-03-08T01:43:22;2.00;;;1.63;;
62696;SDS011;48761;42.680;23.312;2024-03-08T01:45:51;3.00;;;2.00;;
62696;SDS011;48761;42.680;23.312;2024-03-08T01:48:17;2.35;;;1.88;;
62696;SDS011;48761;42.680;23.312;2024-03-08T01:50:43;2.33;;;1.75;;
62696;SDS011;48761;42.680;23.312;2024-03-08T01:53:11;6.97;;;2.15;;
62696;SDS011;48761;42.680;23.312;2024-03-08T01:55:37;3.05;;;1.77;;
62696;SDS011;48761;42.680;23.312;2024-03-08T01:58:04;2.85;;;2.25;;
62696;SDS011;48761;42.680;23.312;2024-03-08T02:00:31;2.38;;;1.85;;
62696;SDS011;48761;42.680;23.312;2024-03-08T02:02:59;2.75;;;2.03;;
62696;SDS011;48761;42.680;23.312;2024-03-08T02:05:26;2.67;;;2.10;;
62696;SDS011;48761;42.680;23.312;2024-03-08T02:07:53;2.55;;;2.20;;
62696;SDS011;48761;42.680;23.312;2024-03-08T02:10:20;3.10;;;2.03;;
62696;SDS011;48761;42.680;23.312;2024-03-08T02:12:46;2.97;;;2.13;;
62696;SDS011;48761;42.680;23.312;2024-03-08T02:15:12;5.15;;;2.22;;
62696;SDS011;48761;42.680;23.312;2024-03-08T02:17:38;3.95;;;2.40;;
62696;SDS011;48761;42.680;23.312;2024-03-08T02:20:04;3.20;;;2.25;;
62696;SDS011;48761;42.680;23.312;2024-03-08T02:22:30;2.97;;;2.25;;
62696;SDS011;48761;42.680;23.312;2024-03-08T02:24:56;3.15;;;2.40;;
62696;SDS011;48761;42.680;23.312;2024-03-08T02:27:26;4.63;;;2.30;;
62696;SDS011;48761;42.680;23.312;2024-03-08T02:29:55;3.35;;;2.35;;
62696;SDS011;48761;42.680;23.312;2024-03-08T02:32:22;3.03;;;1.90;;
62696;SDS011;48761;42.680;23.312;2024-03-08T02:34:48;2.78;;;2.10;;
62696;SDS011;48761;42.680;23.312;2024-03-08T02:37:15;3.10;;;1.88;;
62696;SDS011;48761;42.680;23.312;2024-03-08T02:39:41;2.47;;;1.90;;
62696;SDS011;48761;42.680;23.312;2024-03-08T02:42:07;2.67;;;1.80;;
62696;SDS011;48761;42.680;23.312;2024-03-08T02:44:33;2.28;;;1.70;;
62696;SDS011;48761;42.680;23.312;2024-03-08T02:46:59;2.25;;;1.80;;
62696;SDS011;48761;42.680;23.312;2024-03-08T02:49:26;2.08;;;1.77;;
62696;SDS011;48761;42.680;23.312;2024-03-08T02:51:53;3.03;;;2.38;;
62696;SDS011;48761;42.680;23.312;2024-03-08T02:54:19;2.40;;;1.63;;
62696;SDS011;48761;42.680;23.312;2024-03-08T02:56:45;2.30;;;1.70;;
62696;SDS011;48761;42.680;23.312;2024-03-08T02:59:12;2.75;;;2.00;;
62696;SDS011;48761;42.680;23.312;2024-03-08T03:01:38;2.65;;;1.65;;
62696;SDS011;48761;42.680;23.312;2024-03-08T03:04:04;4.18;;;1.70;;
62696;SDS011;48761;42.680;23.312;2024-03-08T03:06:30;2.50;;;1.60;;
62696;SDS011;48761;42.680;23.312;2024-03-08T03:08:57;2.50;;;1.23;;
62696;SDS011;48761;42.680;23.312;2024-03-08T03:11:23;1.23;;;1.02;;
62696;SDS011;48761;42.680;23.312;2024-03-08T03:13:49;1.80;;;1.10;;
62696;SDS011;48761;42.680;23.312;2024-03-08T03:16:18;1.25;;;1.00;;
62696;SDS011;48761;42.680;23.312;2024-03-08T03:18:44;2.47;;;1.02;;
62696;SDS011;48761;42.680;23.312;2024-03-08T03:21:11;2.05;;;0.90;;
62696;SDS011;48761;42.680;23.312;2024-03-08T03:23:37;1.38;;;1.08;;
62696;SDS011;48761;42.680;23.312;2024-03-08T03:26:03;3.63;;;1.02;;
62696;SDS011;48761;42.680;23.312;2024-03-08T03:28:29;1.50;;;0.90;;
62696;SDS011;48761;42.680;23.312;2024-03-08T03:30:55;1.90;;;0.82;;
62696;SDS011;48761;42.680;23.312;2024-03-08T03:33:21;1.58;;;1.10;;
62696;SDS011;48761;42.680;23.312;2024-03-08T03:35:47;1.50;;;0.98;;
62696;SDS011;48761;42.680;23.312;2024-03-08T03:38:13;1.05;;;0.82;;
62696;SDS011;48761;42.680;23.312;2024-03-08T03:40:39;1.52;;;0.88;;
62696;SDS011;48761;42.680;23.312;2024-03-08T03:43:05;1.50;;;1.02;;
62696;SDS011;48761;42.680;23.312;2024-03-08T03:45:31;4.60;;;0.95;;
62696;SDS011;48761;42.680;23.312;2024-03-08T03:47:57;1.40;;;0.90;;
62696;SDS011;48761;42.680;23.312;2024-03-08T03:50:23;1.35;;;1.02;;
62696;SDS011;48761;42.680;23.312;2024-03-08T03:52:49;2.25;;;1.23;;
62696;SDS011;48761;42.680;23.312;2024-03-08T03:55:15;2.05;;;1.50;;
62696;SDS011;48761;42.680;23.312;2024-03-08T03:57:41;4.13;;;1.75;;
62696;SDS011;48761;42.680;23.312;2024-03-08T04:00:07;3.15;;;1.35;;
62696;SDS011;48761;42.680;23.312;2024-03-08T04:02:33;2.08;;;1.60;;
62696;SDS011;48761;42.680;23.312;2024-03-08T04:04:59;5.72;;;1.20;;
62696;SDS011;48761;42.680;23.312;2024-03-08T04:07:25;2.60;;;1.20;;
62696;SDS011;48761;42.680;23.312;2024-03-08T04:09:51;2.47;;;1.45;;
62696;SDS011;48761;42.680;23.312;2024-03-08T04:12:17;1.98;;;1.33;;
62696;SDS011;48761;42.680;23.312;2024-03-08T04:14:43;2.28;;;1.40;;
62696;SDS011;48761;42.680;23.312;2024-03-08T04:17:09;2.70;;;1.90;;
62696;SDS011;48761;42.680;23.312;2024-03-08T04:19:35;3.47;;;1.52;;
62696;SDS011;48761;42.680;23.312;2024-03-08T04:22:01;2.08;;;1.77;;
62696;SDS011;48761;42.680;23.312;2024-03-08T04:24:27;2.65;;;1.95;;
62696;SDS011;48761;42.680;23.312;2024-03-08T04:26:53;3.13;;;2.38;;
62696;SDS011;48761;42.680;23.312;2024-03-08T04:29:19;2.90;;;2.03;;
62696;SDS011;48761;42.680;23.312;2024-03-08T04:31:45;2.13;;;1.90;;
62696;SDS011;48761;42.680;23.312;2024-03-08T04:34:10;8.45;;;1.92;;
62696;SDS011;48761;42.680;23.312;2024-03-08T04:36:36;3.97;;;2.35;;
62696;SDS011;48761;42.680;23.312;2024-03-08T04:39:02;3.00;;;2.40;;
62696;SDS011;48761;42.680;23.312;2024-03-08T04:41:28;5.10;;;3.15;;
62696;SDS011;48761;42.680;23.312;2024-03-08T04:43:54;3.72;;;2.70;;
62696;SDS011;48761;42.680;23.312;2024-03-08T04:46:20;3.95;;;2.65;;
62696;SDS011;48761;42.680;23.312;2024-03-08T04:48:46;3.55;;;2.58;;
62696;SDS011;48761;42.680;23.312;2024-03-08T04:51:12;3.75;;;2.72;;
62696;SDS011;48761;42.680;23.312;2024-03-08T04:53:38;3.80;;;2.60;;
62696;SDS011;48761;42.680;23.312;2024-03-08T04:56:04;3.63;;;2.40;;
62696;SDS011;48761;42.680;23.312;2024-03-08T04:58:30;4.72;;;2.70;;
62696;SDS011;48761;42.680;23.312;2024-03-08T05:00:56;4.20;;;2.78;;
62696;SDS011;48761;42.680;23.312;2024-03-08T05:03:22;3.00;;;2.58;;
62696;SDS011;48761;42.680;23.312;2024-03-08T05:05:48;4.43;;;2.75;;
62696;SDS011;48761;42.680;23.312;2024-03-08T05:08:13;8.18;;;3.35;;
62696;SDS011;48761;42.680;23.312;2024-03-08T05:10:40;6.15;;;3.00;;
62696;SDS011;48761;42.680;23.312;2024-03-08T05:13:05;3.40;;;2.55;;
62696;SDS011;48761;42.680;23.312;2024-03-08T05:15:31;3.97;;;2.78;;
62696;SDS011;48761;42.680;23.312;2024-03-08T05:17:57;4.50;;;3.05;;
62696;SDS011;48761;42.680;23.312;2024-03-08T05:20:23;5.50;;;3.53;;
62696;SDS011;48761;42.680;23.312;2024-03-08T05:22:49;6.32;;;3.70;;
62696;SDS011;48761;42.680;23.312;2024-03-08T05:25:15;5.05;;;3.70;;
62696;SDS011;48761;42.680;23.312;2024-03-08T05:27:42;5.75;;;3.90;;
62696;SDS011;48761;42.680;23.312;2024-03-08T05:30:08;5.80;;;4.20;;
62696;SDS011;48761;42.680;23.312;2024-03-08T05:32:34;9.85;;;4.28;;
62696;SDS011;48761;42.680;23.312;2024-03-08T05:35:00;26.60;;;15.13;;
62696;SDS011;48761;42.680;23.312;2024-03-08T05:37:26;27.60;;;16.95;;
62696;SDS011;48761;42.680;23.312;2024-03-08T05:39:52;24.27;;;14.90;;
62696;SDS011;48761;42.680;23.312;2024-03-08T05:42:17;12.30;;;6.85;;
62696;SDS011;48761;42.680;23.312;2024-03-08T05:44:43;9.10;;;5.03;;
62696;SDS011;48761;42.680;23.312;2024-03-08T05:47:09;9.90;;;5.57;;
62696;SDS011;48761;42.680;23.312;2024-03-08T05:49:35;7.18;;;4.80;;
62696;SDS011;48761;42.680;23.312;2024-03-08T05:52:01;9.57;;;5.28;;
62696;SDS011;48761;42.680;23.312;2024-03-08T05:54:27;6.53;;;5.00;;
62696;SDS011;48761;42.680;23.312;2024-03-08T05:56:53;7.32;;;4.85;;
62696;SDS011;48761;42.680;23.312;2024-03-08T05:59:19;10.40;;;5.38;;
62696;SDS011;48761;42.680;23.312;2024-03-08T06:01:45;10.48;;;5.68;;
62696;SDS011;48761;42.680;23.312;2024-03-08T06:04:11;10.70;;;5.80;;
62696;SDS011;48761;42.680;23.312;2024-03-08T06:06:37;11.18;;;5.82;;
62696;SDS011;48761;42.680;23.312;2024-03-08T06:09:03;10.48;;;5.82;;
62696;SDS011;48761;42.680;23.312;2024-03-08T06:11:29;11.65;;;6.80;;
62696;SDS011;48761;42.680;23.312;2024-03-08T06:13:55;12.02;;;6.15;;
62696;SDS011;48761;42.680;23.312;2024-03-08T06:16:20;15.13;;;6.28;;
62696;SDS011;48761;42.680;23.312;2024-03-08T06:18:46;11.13;;;6.50;;
62696;SDS011;48761;42.680;23.312;2024-03-08T06:21:12;9.50;;;4.82;;
62696;SDS011;48761;42.680;23.312;2024-03-08T06:23:39;7.10;;;4.30;;
62696;SDS011;48761;42.680;23.312;2024-03-08T06:26:05;8.95;;;4.75;;
62696;SDS011;48761;42.680;23.312;2024-03-08T06:28:31;9.05;;;5.30;;
62696;SDS011;48761;42.680;23.312;2024-03-08T06:31:01;8.82;;;5.60;;
62696;SDS011;48761;42.680;23.312;2024-03-08T06:33:27;8.10;;;5.43;;
62696;SDS011;48761;42.680;23.312;2024-03-08T06:35:54;11.60;;;6.35;;
62696;SDS011;48761;42.680;23.312;2024-03-08T06:38:21;8.05;;;5.03;;
62696;SDS011;48761;42.680;23.312;2024-03-08T06:40:47;7.57;;;5.40;;
62696;SDS011;48761;42.680;23.312;2024-03-08T06:43:12;13.15;;;5.65;;
62696;SDS011;48761;42.680;23.312;2024-03-08T06:45:39;9.23;;;6.07;;
62696;SDS011;48761;42.680;23.312;2024-03-08T06:48:05;8.98;;;5.80;;
62696;SDS011;48761;42.680;23.312;2024-03-08T06:50:31;9.60;;;5.70;;
62696;SDS011;48761;42.680;23.312;2024-03-08T06:52:57;8.60;;;5.28;;
62696;SDS011;48761;42.680;23.312;2024-03-08T06:55:23;10.00;;;5.88;;
62696;SDS011;48761;42.680;23.312;2024-03-08T06:57:49;11.50;;;6.07;;
62696;SDS011;48761;42.680;23.312;2024-03-08T07:00:15;9.45;;;6.03;;
62696;SDS011;48761;42.680;23.312;2024-03-08T07:02:41;10.50;;;6.07;;
62696;SDS011;48761;42.680;23.312;2024-03-08T07:05:07;12.38;;;6.43;;
62696;SDS011;48761;42.680;23.312;2024-03-08T07:07:33;9.20;;;6.03;;
62696;SDS011;48761;42.680;23.312;2024-03-08T07:09:59;8.95;;;5.72;;
62696;SDS011;48761;42.680;23.312;2024-03-08T07:12:25;9.48;;;6.57;;
62696;SDS011;48761;42.680;23.312;2024-03-08T07:14:51;8.02;;;5.90;;
62696;SDS011;48761;42.680;23.312;2024-03-08T07:17:17;9.15;;;5.60;;
62696;SDS011;48761;42.680;23.312;2024-03-08T07:19:43;13.88;;;6.00;;
62696;SDS011;48761;42.680;23.312;2024-03-08T07:22:09;8.88;;;6.00;;
62696;SDS011;48761;42.680;23.312;2024-03-08T07:24:35;10.63;;;5.15;;
62696;SDS011;48761;42.680;23.312;2024-03-08T07:27:01;7.75;;;5.55;;
62696;SDS011;48761;42.680;23.312;2024-03-08T07:29:27;11.68;;;6.28;;
62696;SDS011;48761;42.680;23.312;2024-03-08T07:31:53;11.65;;;6.32;;
62696;SDS011;48761;42.680;23.312;2024-03-08T07:34:19;11.10;;;6.05;;
62696;SDS011;48761;42.680;23.312;2024-03-08T07:36:45;8.65;;;6.10;;
62696;SDS011;48761;42.680;23.312;2024-03-08T07:39:11;10.13;;;5.95;;
62696;SDS011;48761;42.680;23.312;2024-03-08T07:41:37;13.32;;;6.35;;
62696;SDS011;48761;42.680;23.312;2024-03-08T07:44:04;14.25;;;6.53;;
62696;SDS011;48761;42.680;23.312;2024-03-08T07:46:29;10.50;;;6.93;;
62696;SDS011;48761;42.680;23.312;2024-03-08T07:48:55;12.65;;;7.50;;
62696;SDS011;48761;42.680;23.312;2024-03-08T07:51:21;17.20;;;8.13;;
62696;SDS011;48761;42.680;23.312;2024-03-08T07:53:47;12.68;;;7.38;;
62696;SDS011;48761;42.680;23.312;2024-03-08T07:56:13;14.27;;;7.75;;
62696;SDS011;48761;42.680;23.312;2024-03-08T07:58:39;14.52;;;7.18;;
62696;SDS011;48761;42.680;23.312;2024-03-08T08:01:05;10.15;;;6.40;;
62696;SDS011;48761;42.680;23.312;2024-03-08T08:03:31;10.85;;;6.45;;
62696;SDS011;48761;42.680;23.312;2024-03-08T08:05:57;10.45;;;7.07;;
62696;SDS011;48761;42.680;23.312;2024-03-08T08:08:23;9.73;;;7.03;;
62696;SDS011;48761;42.680;23.312;2024-03-08T08:10:49;12.02;;;7.22;;
62696;SDS011;48761;42.680;23.312;2024-03-08T08:13:15;46.65;;;25.85;;
62696;SDS011;48761;42.680;23.312;2024-03-08T08:15:41;27.80;;;15.00;;
62696;SDS011;48761;42.680;23.312;2024-03-08T08:18:07;12.30;;;6.70;;
62696;SDS011;48761;42.680;23.312;2024-03-08T08:20:33;25.92;;;15.93;;
62696;SDS011;48761;42.680;23.312;2024-03-08T08:22:59;11.05;;;6.80;;
62696;SDS011;48761;42.680;23.312;2024-03-08T08:25:25;16.20;;;8.60;;
62696;SDS011;48761;42.680;23.312;2024-03-08T08:27:51;13.30;;;8.30;;
62696;SDS011;48761;42.680;23.312;2024-03-08T08:30:16;11.50;;;7.93;;
62696;SDS011;48761;42.680;23.312;2024-03-08T08:32:42;13.48;;;7.70;;
62696;SDS011;48761;42.680;23.312;2024-03-08T08:35:08;10.43;;;6.00;;
62696;SDS011;48761;42.680;23.312;2024-03-08T08:37:34;28.80;;;13.82;;
62696;SDS011;48761;42.680;23.312;2024-03-08T08:40:01;10.98;;;6.55;;
62696;SDS011;48761;42.680;23.312;2024-03-08T08:42:27;7.72;;;5.22;;
62696;SDS011;48761;42.680;23.312;2024-03-08T08:44:52;11.05;;;6.30;;
62696;SDS011;48761;42.680;23.312;2024-03-08T08:50:05;16.33;;;10.30;;
62696;SDS011;48761;42.680;23.312;2024-03-08T08:52:31;30.83;;;17.95;;
62696;SDS011;48761;42.680;23.312;2024-03-08T08:54:58;15.63;;;7.50;;
62696;SDS011;48761;42.680;23.312;2024-03-08T08:57:24;17.30;;;6.70;;
62696;SDS011;48761;42.680;23.312;2024-03-08T08:59:50;7.32;;;4.60;;
62696;SDS011;48761;42.680;23.312;2024-03-08T09:02:16;24.02;;;13.50;;
62696;SDS011;48761;42.680;23.312;2024-03-08T09:04:45;14.02;;;7.03;;
62696;SDS011;48761;42.680;23.312;2024-03-08T09:07:11;8.27;;;4.85;;
62696;SDS011;48761;42.680;23.312;2024-03-08T09:09:37;9.57;;;5.22;;
62696;SDS011;48761;42.680;23.312;2024-03-08T09:12:02;10.65;;;6.60;;
62696;SDS011;48761;42.680;23.312;2024-03-08T09:14:28;10.40;;;5.95;;
62696;SDS011;48761;42.680;23.312;2024-03-08T09:16:54;10.88;;;5.95;;
62696;SDS011;48761;42.680;23.312;2024-03-08T09:19:20;7.70;;;4.93;;
62696;SDS011;48761;42.680;23.312;2024-03-08T09:21:46;22.83;;;13.73;;
62696;SDS011;48761;42.680;23.312;2024-03-08T09:24:12;8.88;;;5.20;;
62696;SDS011;48761;42.680;23.312;2024-03-08T09:26:38;8.15;;;4.55;;
62696;SDS011;48761;42.680;23.312;2024-03-08T09:29:04;7.45;;;4.13;;
62696;SDS011;48761;42.680;23.312;2024-03-08T09:31:30;5.57;;;3.97;;
62696;SDS011;48761;42.680;23.312;2024-03-08T09:33:56;7.45;;;4.32;;
62696;SDS011;48761;42.680;23.312;2024-03-08T09:36:22;10.10;;;4.95;;
62696;SDS011;48761;42.680;23.312;2024-03-08T09:38:48;5.35;;;3.90;;
62696;SDS011;48761;42.680;23.312;2024-03-08T09:41:14;5.20;;;2.92;;
62696;SDS011;48761;42.680;23.312;2024-03-08T09:43:40;6.05;;;3.10;;
62696;SDS011;48761;42.680;23.312;2024-03-08T09:46:06;4.95;;;3.50;;
62696;SDS011;48761;42.680;23.312;2024-03-08T09:48:33;8.10;;;4.60;;
62696;SDS011;48761;42.680;23.312;2024-03-08T09:51:00;6.65;;;3.50;;
62696;SDS011;48761;42.680;23.312;2024-03-08T09:53:27;6.05;;;3.30;;
62696;SDS011;48761;42.680;23.312;2024-03-08T09:55:53;8.82;;;3.88;;
62696;SDS011;48761;42.680;23.312;2024-03-08T09:58:20;5.68;;;3.40;;
62696;SDS011;48761;42.680;23.312;2024-03-08T10:00:46;7.63;;;3.10;;
62696;SDS011;48761;42.680;23.312;2024-03-08T10:03:13;6.47;;;3.05;;
62696;SDS011;48761;42.680;23.312;2024-03-08T10:05:40;4.75;;;3.15;;
62696;SDS011;48761;42.680;23.312;2024-03-08T10:08:07;5.30;;;3.53;;
62696;SDS011;48761;42.680;23.312;2024-03-08T10:10:33;8.75;;;3.28;;
62696;SDS011;48761;42.680;23.312;2024-03-08T10:13:00;7.13;;;3.10;;
62696;SDS011;48761;42.680;23.312;2024-03-08T10:15:29;3.95;;;2.92;;
62696;SDS011;48761;42.680;23.312;2024-03-08T10:17:58;5.03;;;3.00;;
62696;SDS011;48761;42.680;23.312;2024-03-08T10:20:24;5.55;;;3.53;;
62696;SDS011;48761;42.680;23.312;2024-03-08T10:22:50;4.15;;;2.90;;
62696;SDS011;48761;42.680;23.312;2024-03-08T10:25:16;6.55;;;2.80;;
62696;SDS011;48761;42.680;23.312;2024-03-08T10:27:43;5.53;;;2.30;;
62696;SDS011;48761;42.680;23.312;2024-03-08T10:30:15;4.88;;;2.90;;
62696;SDS011;48761;42.680;23.312;2024-03-08T10:32:41;3.72;;;2.40;;
62696;SDS011;48761;42.680;23.312;2024-03-08T10:35:07;3.53;;;2.35;;
62696;SDS011;48761;42.680;23.312;2024-03-08T10:37:36;3.28;;;2.30;;
62696;SDS011;48761;42.680;23.312;2024-03-08T10:40:10;3.88;;;2.45;;
62696;SDS011;48761;42.680;23.312;2024-03-08T10:42:58;4.03;;;2.72;;
62696;SDS011;48761;42.680;23.312;2024-03-08T10:45:35;3.38;;;1.98;;
62696;SDS011;48761;42.680;23.312;2024-03-08T10:50:45;4.18;;;2.50;;
62696;SDS011;48761;42.680;23.312;2024-03-08T10:53:13;5.68;;;2.83;;
62696;SDS011;48761;42.680;23.312;2024-03-08T10:55:40;3.40;;;2.33;;
62696;SDS011;48761;42.680;23.312;2024-03-08T10:58:06;5.43;;;2.40;;
62696;SDS011;48761;42.680;23.312;2024-03-08T11:00:32;3.13;;;2.17;;
62696;SDS011;48761;42.680;23.312;2024-03-08T11:02:58;6.93;;;2.60;;
62696;SDS011;48761;42.680;23.312;2024-03-08T11:05:37;3.60;;;2.17;;
62696;SDS011;48761;42.680;23.312;2024-03-08T11:08:16;7.60;;;4.57;;
62696;SDS011;48761;42.680;23.312;2024-03-08T11:10:50;4.32;;;2.50;;
62696;SDS011;48761;42.680;23.312;2024-03-08T11:13:32;3.20;;;2.55;;
62696;SDS011;48761;42.680;23.312;2024-03-08T11:16:02;3.25;;;2.50;;
62696;SDS011;48761;42.680;23.312;2024-03-08T11:18:33;6.38;;;4.75;;
62696;SDS011;48761;42.680;23.312;2024-03-08T11:21:01;4.07;;;2.55;;
62696;SDS011;48761;42.680;23.312;2024-03-08T11:23:28;5.03;;;2.50;;
62696;SDS011;48761;42.680;23.312;2024-03-08T11:25:55;7.63;;;2.60;;
62696;SDS011;48761;42.680;23.312;2024-03-08T11:28:22;7.97;;;3.60;;
62696;SDS011;48761;42.680;23.312;2024-03-08T11:33:27;2.85;;;2.10;;
62696;SDS011;48761;42.680;23.312;2024-03-08T11:38:36;2.40;;;2.00;;
62696;SDS011;48761;42.680;23.312;2024-03-08T11:41:06;4.90;;;2.00;;
62696;SDS011;48761;42.680;23.312;2024-03-08T11:43:31;4.30;;;2.70;;
62696;SDS011;48761;42.680;23.312;2024-03-08T11:46:07;5.15;;;1.90;;
62696;SDS011;48761;42.680;23.312;2024-03-08T11:48:34;8.00;;;2.25;;
62696;SDS011;48761;42.680;23.312;2024-03-08T11:51:00;2.03;;;1.50;;
62696;SDS011;48761;42.680;23.312;2024-03-08T11:53:27;3.03;;;1.80;;
62696;SDS011;48761;42.680;23.312;2024-03-08T11:55:53;3.50;;;2.17;;
62696;SDS011;48761;42.680;23.312;2024-03-08T11:58:19;12.45;;;2.55;;
62696;SDS011;48761;42.680;23.312;2024-03-08T12:00:45;2.72;;;1.75;;
62696;SDS011;48761;42.680;23.312;2024-03-08T12:03:11;2.78;;;1.77;;
62696;SDS011;48761;42.680;23.312;2024-03-08T12:05:38;7.45;;;2.20;;
62696;SDS011;48761;42.680;23.312;2024-03-08T12:08:04;4.68;;;1.95;;
62696;SDS011;48761;42.680;23.312;2024-03-08T12:10:30;4.97;;;2.20;;
62696;SDS011;48761;42.680;23.312;2024-03-08T12:12:57;4.32;;;2.08;;
62696;SDS011;48761;42.680;23.312;2024-03-08T12:15:28;2.00;;;1.60;;
62696;SDS011;48761;42.680;23.312;2024-03-08T12:17:55;5.18;;;2.35;;
62696;SDS011;48761;42.680;23.312;2024-03-08T12:20:25;5.18;;;1.92;;
62696;SDS011;48761;42.680;23.312;2024-03-08T12:22:53;2.53;;;1.70;;
62696;SDS011;48761;42.680;23.312;2024-03-08T12:25:19;5.22;;;2.35;;
62696;SDS011;48761;42.680;23.312;2024-03-08T12:27:46;3.72;;;1.80;;
62696;SDS011;48761;42.680;23.312;2024-03-08T12:30:19;2.70;;;1.52;;
62696;SDS011;48761;42.680;23.312;2024-03-08T12:32:52;3.00;;;2.00;;
62696;SDS011;48761;42.680;23.312;2024-03-08T12:35:23;6.30;;;3.30;;
62696;SDS011;48761;42.680;23.312;2024-03-08T12:37:51;6.90;;;2.22;;
62696;SDS011;48761;42.680;23.312;2024-03-08T12:40:19;2.50;;;1.90;;
62696;SDS011;48761;42.680;23.312;2024-03-08T12:42:55;5.13;;;2.85;;
62696;SDS011;48761;42.680;23.312;2024-03-08T12:45:22;3.38;;;2.05;;
62696;SDS011;48761;42.680;23.312;2024-03-08T12:47:48;3.47;;;2.50;;
62696;SDS011;48761;42.680;23.312;2024-03-08T12:50:14;2.47;;;2.05;;
62696;SDS011;48761;42.680;23.312;2024-03-08T12:52:40;1.88;;;1.63;;
62696;SDS011;48761;42.680;23.312;2024-03-08T12:55:06;2.53;;;1.95;;
62696;SDS011;48761;42.680;23.312;2024-03-08T12:57:33;4.13;;;2.10;;
62696;SDS011;48761;42.680;23.312;2024-03-08T13:00:00;3.13;;;2.30;;
62696;SDS011;48761;42.680;23.312;2024-03-08T13:02:27;4.43;;;1.90;;
62696;SDS011;48761;42.680;23.312;2024-03-08T13:04:53;4.20;;;2.40;;
62696;SDS011;48761;42.680;23.312;2024-03-08T13:07:19;3.22;;;2.10;;
62696;SDS011;48761;42.680;23.312;2024-03-08T13:09:45;4.38;;;2.05;;
62696;SDS011;48761;42.680;23.312;2024-03-08T13:12:11;8.80;;;1.90;;
62696;SDS011;48761;42.680;23.312;2024-03-08T13:14:37;3.88;;;2.22;;
62696;SDS011;48761;42.680;23.312;2024-03-08T13:17:03;2.22;;;1.70;;
62696;SDS011;48761;42.680;23.312;2024-03-08T13:19:29;4.35;;;1.85;;
62696;SDS011;48761;42.680;23.312;2024-03-08T13:21:55;4.40;;;1.85;;
62696;SDS011;48761;42.680;23.312;2024-03-08T13:24:21;4.38;;;1.55;;
62696;SDS011;48761;42.680;23.312;2024-03-08T13:26:47;3.35;;;1.92;;
62696;SDS011;48761;42.680;23.312;2024-03-08T13:29:13;3.15;;;1.92;;
62696;SDS011;48761;42.680;23.312;2024-03-08T13:31:39;4.30;;;1.67;;
62696;SDS011;48761;42.680;23.312;2024-03-08T13:34:05;2.90;;;1.92;;
62696;SDS011;48761;42.680;23.312;2024-03-08T13:36:31;3.03;;;1.85;;
62696;SDS011;48761;42.680;23.312;2024-03-08T13:38:57;2.95;;;1.70;;
62696;SDS011;48761;42.680;23.312;2024-03-08T13:41:23;3.65;;;2.00;;
62696;SDS011;48761;42.680;23.312;2024-03-08T13:43:49;3.15;;;1.80;;
62696;SDS011;48761;42.680;23.312;2024-03-08T13:46:15;3.00;;;1.65;;
62696;SDS011;48761;42.680;23.312;2024-03-08T13:48:42;2.85;;;2.00;;
62696;SDS011;48761;42.680;23.312;2024-03-08T13:51:08;3.78;;;2.30;;
62696;SDS011;48761;42.680;23.312;2024-03-08T13:53:34;3.47;;;1.73;;
62696;SDS011;48761;42.680;23.312;2024-03-08T13:56:03;3.13;;;1.85;;
62696;SDS011;48761;42.680;23.312;2024-03-08T13:58:29;2.85;;;1.67;;
62696;SDS011;48761;42.680;23.312;2024-03-08T14:00:55;3.90;;;2.33;;
62696;SDS011;48761;42.680;23.312;2024-03-08T14:03:21;4.55;;;2.17;;
62696;SDS011;48761;42.680;23.312;2024-03-08T14:05:47;2.53;;;1.90;;
62696;SDS011;48761;42.680;23.312;2024-03-08T14:08:13;2.90;;;1.98;;
62696;SDS011;48761;42.680;23.312;2024-03-08T14:10:39;5.30;;;1.85;;
62696;SDS011;48761;42.680;23.312;2024-03-08T14:13:05;3.00;;;2.05;;
62696;SDS011;48761;42.680;23.312;2024-03-08T14:15:31;3.22;;;2.15;;
62696;SDS011;48761;42.680;23.312;2024-03-08T14:17:57;2.42;;;1.90;;
62696;SDS011;48761;42.680;23.312;2024-03-08T14:20:23;2.95;;;2.13;;
62696;SDS011;48761;42.680;23.312;2024-03-08T14:22:56;6.50;;;2.15;;
62696;SDS011;48761;42.680;23.312;2024-03-08T14:25:25;3.53;;;1.73;;
62696;SDS011;48761;42.680;23.312;2024-03-08T14:27:52;3.38;;;2.25;;
62696;SDS011;48761;42.680;23.312;2024-03-08T14:30:19;3.70;;;2.25;;
62696;SDS011;48761;42.680;23.312;2024-03-08T14:32:46;2.60;;;1.90;;
62696;SDS011;48761;42.680;23.312;2024-03-08T14:35:11;4.90;;;2.65;;
62696;SDS011;48761;42.680;23.312;2024-03-08T14:37:37;4.68;;;2.70;;